MMEP 090042Z 36005KT 12SM SKC 20/16 A3004= 090042

MMEP 082350Z 36007KT 12SM SKC 24/14 A3003 RMK SLP164 56002 963= 082350

MMEP 082255Z 00000KT 12SM SKC 30/13 A3002= 082255

MMEP 082145Z 36008KT 12SM SKC 30/13 A3002= 082146

MMEP 082040Z 00000KT 12SM SCT250 31/12 A3003 RMK SLP158 57024 958 8/001= 082041

MMEP 081949Z 00000KT 12SM SCT250 30/13 A3005 RMK 8/001= 081949

MMEP 081842Z 09008KT 12SM SCT250 29/11 A3007 RMK 8/005= 081843

MMEP 081750Z 09008KT 12SM SCT250 27/12 A3010 RMK SLP191 56004 955 8/005= 081751

MMEP 081650Z 00000KT 12SM SCT250 24/12 A3011 RMK 8/005= 081652

MMEP 081542Z 00000KT 12SM SCT250 14/11 A3011 RMK 8/001= 081542

MMEP 081443Z 00000KT 12SM SCT250 06/04 A3011 RMK SLP223 52008 902 8/001= 081443

MMEP 081346Z 00000KT 12SM SCT250 06/04 A3010 RMK 8/001= 081346

MMEP 081242Z 00000KT 12SM SKC 06/05 A3009= 081242

MMEP 081220Z RTD 00000KT 12SM SKC 06/05 A3009 RMK RTS= 081221

MMEP 080340Z 00000KT 10SM SKC 13/12 A3007= 080340

MMEP 080246Z 00000KT 10SM SKC 15/13 A3007 RMK SLP200 52018 960= 080247

MMEP 080143Z 00000KT 12SM SKC 18/14 A3004= 080143

MMEP 080046Z 36007KT 12SM SKC 20/16 A3005= 080047

MMEP 072353Z 36007KT 12SM SKC 24/14 A3004 RMK SLP172 56005 959 CI W= 072354

MMEP 072255Z 35008KT 12SM SKC 26/15 A3003 RMK SC SW= 072255

MMEP 072149Z 33008KT 12SM SCT250 28/14 A3003 RMK 8/001 SC W= 072149

MMEP 072040Z 33008KT 12SM SCT250 28/14 A3003 RMK SLP163 57016 963 8/001= 072040

MMEP 071942Z 33008KT 12SM SCT250 28/14 A3005 RMK 8/001= 071942

MMEP 071844Z 33007KT 12SM SCT250 28/14 A3007 RMK 8/001= 071844

MMEP 071747Z 00000KT 12SM SCT250 27/14 A3010 RMK SLP189 56002 909 8/001= 071748

MMEP 071649Z 00000KT 12SM SCT250 24/14 A3011 RMK 8/001= 071650

MMEP 071542Z 00000KT 12SM SCT250 17/14 A3011 RMK 8/005= 071542

MMEP 071445Z 00000KT 12SM SCT250 12/09 A3010 RMK SLP196 51007 900 8/001= 071446

MMEP 071348Z 00000KT 12SM SCT250 10/09 A3010 RMK 8/001= 071349

MMEP 071250Z 00000KT 12SM SKC 10/09 A3007 RMK BCFG E= 071250

MMEP 071218Z RTD 00000KT 12SM SKC 10/09 A3008 RMK BCFG E RTS= 071218

MMEP 070040Z 00000KT 12SM SKC 21/15 A3009= 070041

MMEP 062342Z 34007KT 12SM SCT250 25/13 A3007 RMK SLP180 55005 919 8/006= 062343

MMEP 062250Z 34008KT 12SM BKN250 26/15 A3005 RMK 8/008 SC SE= 062251

MMEP 062140Z 34008KT 12SM BKN250 30/13 A3005 RMK 8/008 SC W= 062140

MMEP 062050Z 30005KT 12SM BKN250 30/13 A3005 RMK SLP174 57021 923 8/008 SC W= 062055

MMEP 061942Z 24007KT 12SM BKN250 30/13 A3008 RMK 8/008 CU W= 061942

MMEP 061844Z 00000KT 12SM OVC250 28/15 A3009 RMK 8/007 ISOL CU= 061844

MMEP 061743Z 09008KT 12SM OVC250 25/15 A3011 RMK SLP183 52016 911 8/007= 061744

MMEP 061646Z 09003KT 12SM OVC250 23/14 A3013 RMK 8/007= 061647

MMEP 061540Z 00000KT 12SM OVC220 17/14 A3013 RMK 8/007= 061540

MMEP 061446Z 00000KT 12SM OVC250 13/11 A3012 RMK SLP198 52004 911 8/007= 061447

MMEP 061343Z 00000KT 12SM OVC220 10/09 A3010 RMK 8/007 BR N= 061345

MMEP 061247Z 00000KT 12SM FEW100 09/09 A3008 RMK 8/010 BCFG S N= 061248

MMEP 061200Z RTD 00000KT 10SM SKC 10/10 A3007 RMK SLP166 54001 952 RTS= 061205